Aérodrome :
LOGIN :

S'inscrire | Disclaimer

   EN    FR    IT 

 










Légende :    VFR   VFR Marginal   IFR   IFR Intensif   IFR Très Intensif
Visi : 
Plafond : 
>= 8 km
>= 3000ft
5 à 8 km
1000 à 3000 ft
1500m à 5 km
500 à 1000 ft
800 à 1500m
200 à 500 ft
< 800m
< 200 ft
Symboles :   Orages  Brouillard  Fortes neiges  Fortes précipitations  Vent > 20 kt
SIGMETs :   Divers  Orages  Givrage  Turbulence  Onde Orograph.  Cendres Volcan.






- Altitude de l'aérodrome : 776 ft
- Code IATA : RMS


ETAR - Ramstein Air Base

DERNIER METAR :
  • 301126Z 24009G17KT 9999 OVC008 02/00 A3012 RMK AO2A SNE05RAB05E26 SLP211 $

METARs EXPIRÉS :
  • 301105Z 23010G14KT 9999 -RA OVC007 01/00 A3012 RMK AO2A SNE05RAB05 SLP212 $
  • 301055Z 24009G15KT 9999 -SN OVC007 01/00 A3013 RMK AO2A SNB0950E04SNB27 SLP215 P0001 T00100001 $
  • 301031Z 25013G18KT 9999 -SN OVC010 01/M00 A3013 RMK AO2A SNE04SNB27 SLP215 $
  • 301014Z 24009G15KT 9999 OVC010 01/M01 A3013 RMK AO2A SNE04 SLP215 $
  • 301004Z 25009KT 9999 OVC009 01/M00 A3013 RMK AO2A SNE04 SLP215 $
  • 300955Z 23009G20KT 9999 -SN OVC010 01/M01 A3013 RMK AO2A SNE27SNB41 CIG 009 RWY08 SLP215 P0000 T00071006 $
  • 300932Z 24009KT 9999 OVC010 01/M01 A3014 RMK AO2A SNE27 CIG 009 RWY08 SLP219 $
  • 300855Z 24010G18KT 6000 -SN BR OVC008 00/M01 A3014 RMK AO2A SNB04 SLP219 P0000 60000 T00021008 55002 $
  • 300845Z 24009KT 5000 -SN BR OVC008 00/M01 A3015 RMK AO2A SNB04 SLP223 $

TAF AMD TAF ETAR
Valide du 30 à 11h jusqu'au 31 à 16h UTC


301120Z 3011/3116 24015G25KT 6000 -RA BKN007 620093 520005 QNH3010INS
TEMPO 3011/3012 3200 -RASN BKN010 620103
BECMG 3012/3013 26010G20KT 8000 -RA BKN010 620103 510005 QNH3012INS
BECMG 3015/3016 26010G15KT 9999 NSW BKN015 620204 QNH3017INS
BECMG 3020/3021 25009KT 9999 BKN020 620202 QNH3025INS
BECMG 3109/3110 24010G15KT 9999 BKN012 620124 QNH3022INS
BECMG 3113/3114 24015G25KT 9999 BKN020 620204 520005 QNH3022INS TX04/3014Z TN01/3106Z



MET'MAP, la Météo Aéronautique d'un coup d'oeil ! - Copyright ORBIFLY Décembre 2007 - Disclaimer

ORBIFLY MET'MAP TEAM :

Programmation & Développement : Alexandra Zaïnal
Sur une idée originale de : Baudouin d'Aumeries
Soutien technique & logistique : Manuel Goepfert
Assistance : Marc-Olivier Méhu




SOURCES & CREDITS :

   NOAA